CYWA

Petawawa Airport

Petawawa, Ontario, Canada
TAF AMD CYWA 171132Z 1712/1724 29005KT P6SM FEW015 BKN025 TEMPO 1712/1715 4SM -SHSN OVC015 FM171500 32010G20KT P6SM -SHSN BKN025 RMK FCST BASED ON AUTO OBS. NXT FCST BY 171800Z
Issued Valid From Valid To
Dec-17 @ 11:32 UTC
(an hour ago)
Dec-17 @ 12:00 UTC
(57 minutes ago)
Dec-18 @ 00:00 UTC
(in 11 hours)
Dec-17 @ 12:00 to Dec-17 @ 15:00
TAF AMD CYWA 171132Z 1712/1724 29005KT P6SM FEW015 BKN025
Wind Visibility Clouds
290° at 5 knots Greater than 6 miles
  • Few at 1,500' AGL
  • Broken at 2,500' AGL
Temporary Dec-17 @ 12:00 to Dec-17 @ 15:00
TEMPO 1712/1715 4SM -SHSN OVC015
Visibility Clouds Conditions
4 miles
  • Overcast at 1,500' AGL
  • Light Snow
From Dec-17 @ 15:00 to Dec-18 @ 00:00
FM171500 32010G20KT P6SM -SHSN BKN025 RMK FCST BASED ON AUTO OBS. NXT FCST BY 171800Z
Wind Visibility Clouds Conditions
320° at 10 knots
 Gusting to 20 knots
Greater than 6 miles
  • Broken at 2,500' AGL
  • Light Snow
TAF AMD CYWA 171132Z 1712/1724 29005KT P6SM FEW015 BKN025 TEMPO 1712/1715 4SM -SHSN OVC015 FM171500 32010G20KT P6SM -SHSN BKN025 RMK FCST BASED ON AUTO OBS. NXT FCST BY 171800Z
Issued Dec-17 @ 11:32 UTC
(an hour ago)
Valid From Dec-17 @ 12:00 UTC
(57 minutes ago)
Valid To Dec-18 @ 00:00 UTC
(in 11 hours)
Dec-17 @ 12:00 - Dec-17 @ 15:00
Wind Visibility
290° at 5 knots Greater than 6 miles
Clouds
  • Few at 1,500' AGL
  • Broken at 2,500' AGL
Temporary Dec-17 @ 12:00 - Dec-17 @ 15:00
Clouds
  • Overcast at 1,500' AGL
Conditions
  • Light Snow
From Dec-17 @ 15:00 - Dec-18 @ 00:00
Wind Visibility
320° at 10 knots
 Gusting to 20 knots
Greater than 6 miles
Clouds
  • Broken at 2,500' AGL
Conditions
  • Light Snow